Time;durP1;ratioP1;P1;durP2;ratioP2;P2;SDS_P1;SDS_P2;PMS_P1;PMS_P2;Temp;Humidity;BMP_temperature;BMP_pressure;BME280_temperature;BME280_humidity;BME280_pressure;Samples;Min_cycle;Max_cycle;Signal;HPM_P1;HPM_P2
2022/06/29 00:00:04;;;;;;;3.22;1.20;;;;;;;23.04;43.47;101773.50;5030587;28;20095;-68
2022/06/29 00:02:29;;;;;;;3.63;1.70;;;;;;;23.05;43.71;101777.91;5030116;28;20041;-69
2022/06/29 00:04:54;;;;;;;5.50;1.50;;;;;;;22.98;43.86;101771.06;5030260;28;20038;-67
2022/06/29 00:07:20;;;;;;;5.47;1.35;;;;;;;23.24;43.36;101762.38;5030127;28;20037;-69
2022/06/29 00:09:45;;;;;;;8.68;1.40;;;;;;;23.53;43.02;101763.25;5029614;28;20049;-68
2022/06/29 00:12:11;;;;;;;10.02;1.63;;;;;;;23.51;42.64;101765.44;5030477;28;20114;-68
2022/06/29 00:14:41;;;;;;;3.60;1.63;;;;;;;23.43;42.71;101763.34;5030127;28;20520;-70
2022/06/29 00:17:11;;;;;;;3.15;1.42;;;;;;;23.48;42.54;101767.97;5046085;28;20121;-68
2022/06/29 00:19:38;;;;;;;1.98;1.27;;;;;;;23.37;42.64;101753.50;5033445;28;20032;-69
2022/06/29 00:22:04;;;;;;;4.78;1.77;;;;;;;23.40;43.10;101757.59;5033165;28;20375;-67
2022/06/29 00:24:30;;;;;;;3.22;1.40;;;;;;;23.40;43.02;101763.91;5033956;28;20034;-69
2022/06/29 00:26:56;;;;;;;4.80;1.95;;;;;;;23.42;42.47;101756.22;5033449;28;20389;-69
2022/06/29 00:29:21;;;;;;;3.40;1.17;;;;;;;23.43;42.19;101757.03;5033282;28;20037;-68
2022/06/29 00:31:47;;;;;;;3.55;1.15;;;;;;;23.37;43.13;101759.00;5033475;28;20056;-68
2022/06/29 00:34:12;;;;;;;2.22;1.20;;;;;;;23.34;42.80;101750.53;5033414;28;20033;-68
2022/06/29 00:36:38;;;;;;;5.38;1.83;;;;;;;23.34;42.77;101748.63;5033291;28;20095;-69
2022/06/29 00:39:03;;;;;;;2.75;1.35;;;;;;;23.30;42.82;101743.94;5031900;28;20042;-68
2022/06/29 00:41:29;;;;;;;7.05;2.17;;;;;;;23.25;43.30;101741.25;5033121;28;20508;-67
2022/06/29 00:43:54;;;;;;;2.63;1.15;;;;;;;23.40;41.95;101736.47;5033157;28;20034;-71
2022/06/29 00:46:20;;;;;;;2.08;1.33;;;;;;;23.38;42.37;101737.88;5032840;28;20045;-68
2022/06/29 00:48:45;;;;;;;3.17;1.20;;;;;;;23.29;42.66;101736.84;5032838;28;20025;-68
2022/06/29 00:51:11;;;;;;;7.97;1.55;;;;;;;23.41;42.17;101737.28;5033401;28;20493;-67
2022/06/29 00:53:41;;;;;;;6.07;1.10;;;;;;;23.28;42.73;101735.19;5033063;28;20144;-68
2022/06/29 00:56:12;;;;;;;4.72;1.67;;;;;;;23.27;42.20;101734.38;5032880;28;20426;-67
2022/06/29 00:58:40;;;;;;;3.15;1.38;;;;;;;23.21;42.63;101727.28;5032921;28;20025;-68
2022/06/29 01:01:06;;;;;;;3.20;1.05;;;;;;;23.32;42.50;101731.63;5032560;28;20449;-68
2022/06/29 01:03:32;;;;;;;3.22;1.40;;;;;;;23.22;42.72;101730.84;5033164;28;20041;-68
2022/06/29 01:06:00;;;;;;;1.45;1.30;;;;;;;23.10;42.91;101725.75;5032811;28;20045;-67
2022/06/29 01:08:26;;;;;;;4.05;1.30;;;;;;;23.16;42.58;101721.84;5032701;28;20527;-67
2022/06/29 01:10:51;;;;;;;2.15;1.15;;;;;;;22.85;43.28;101720.47;5032304;28;20038;-66
2022/06/29 01:13:16;;;;;;;2.63;1.40;;;;;;;22.77;43.32;101720.25;5031439;28;20029;-68
2022/06/29 01:15:42;;;;;;;2.55;1.35;;;;;;;22.60;44.05;101710.47;5032391;28;20025;-67
2022/06/29 01:18:07;;;;;;;1.95;1.20;;;;;;;22.48;44.44;101718.22;5032785;28;20044;-69
2022/06/29 01:20:33;;;;;;;3.85;1.67;;;;;;;22.49;45.13;101714.38;5032430;28;20022;-67
2022/06/29 01:22:58;;;;;;;1.50;1.05;;;;;;;22.91;42.83;101713.84;5027735;28;20049;-66
2022/06/29 01:25:24;;;;;;;3.05;1.50;;;;;;;23.03;42.81;101711.56;5012696;28;20398;-67
2022/06/29 01:27:49;;;;;;;4.97;1.30;;;;;;;23.14;41.89;101712.28;5012503;28;20061;-69
2022/06/29 01:30:15;;;;;;;1.92;1.15;;;;;;;23.13;42.66;101713.38;5012784;28;20045;-67
2022/06/29 01:32:40;;;;;;;5.07;1.30;;;;;;;23.39;41.72;101712.88;5012459;28;20078;-66
2022/06/29 01:35:09;;;;;;;2.05;1.30;;;;;;;23.42;41.77;101706.84;5012586;28;20034;-68
2022/06/29 01:37:34;;;;;;;4.68;1.25;;;;;;;23.43;41.84;101711.19;5012479;28;20041;-68
2022/06/29 01:40:02;;;;;;;4.68;1.30;;;;;;;23.18;42.30;101710.59;5012510;28;20112;-70
2022/06/29 01:42:27;;;;;;;3.65;1.38;;;;;;;23.23;42.24;101708.63;5012745;28;20061;-67
2022/06/29 01:44:53;;;;;;;4.50;1.40;;;;;;;23.20;41.79;101708.38;5025306;28;20041;-68
2022/06/29 01:47:18;;;;;;;1.42;1.10;;;;;;;23.30;41.91;101703.63;5031814;28;20041;-68
2022/06/29 01:49:43;;;;;;;1.75;1.05;;;;;;;23.00;42.46;101708.53;5032006;28;20046;-68
2022/06/29 01:52:09;;;;;;;1.63;1.33;;;;;;;22.80;43.17;101703.25;5031915;28;20041;-66
2022/06/29 01:54:34;;;;;;;4.25;1.67;;;;;;;22.81;43.44;101694.72;5031920;28;20059;-67
2022/06/29 01:57:00;;;;;;;2.70;1.42;;;;;;;22.84;43.41;101701.56;5032051;28;20037;-69
2022/06/29 01:59:25;;;;;;;3.17;1.38;;;;;;;22.70;43.43;101699.44;5031833;28;20040;-68
2022/06/29 02:01:50;;;;;;;2.38;1.48;;;;;;;22.79;43.67;101694.19;5031625;28;20500;-70
2022/06/29 02:04:16;;;;;;;2.33;1.33;;;;;;;23.20;42.31;101694.66;5031726;28;20218;-67
2022/06/29 02:06:42;;;;;;;8.55;1.40;;;;;;;23.31;41.84;101691.56;5031833;28;20049;-68
2022/06/29 02:09:07;;;;;;;3.55;1.27;;;;;;;23.28;42.44;101694.88;5031823;28;20393;-68
2022/06/29 02:11:33;;;;;;;2.25;1.50;;;;;;;23.33;41.99;101677.59;5031497;28;20038;-67
2022/06/29 02:13:58;;;;;;;3.83;1.48;;;;;;;23.22;41.99;101674.06;5030047;28;20037;-66
2022/06/29 02:16:23;;;;;;;5.43;1.58;;;;;;;23.24;42.14;101679.28;5031109;28;20041;-69
2022/06/29 02:18:49;;;;;;;2.25;1.35;;;;;;;23.38;42.18;101680.25;5031114;28;20504;-66
2022/06/29 02:21:14;;;;;;;2.03;1.38;;;;;;;23.31;42.00;101675.09;5031567;28;20063;-68
2022/06/29 02:23:40;;;;;;;2.63;1.52;;;;;;;23.50;41.36;101673.28;5031425;28;20032;-68
2022/06/29 02:26:06;;;;;;;3.72;1.63;;;;;;;23.52;41.35;101670.25;5031229;28;20038;-68
2022/06/29 02:28:32;;;;;;;4.45;1.60;;;;;;;23.44;41.45;101674.44;5031145;28;20029;-71
2022/06/29 02:36:26;;;;;;;4.50;1.80;;;;;;;23.45;41.99;101672.50;5031597;28;20554;-67
2022/06/29 02:38:52;;;;;;;4.80;1.70;;;;;;;23.44;41.19;101670.88;5031011;28;20033;-67
2022/06/29 02:41:17;;;;;;;6.20;1.63;;;;;;;23.44;41.22;101666.22;5030507;28;20039;-69
2022/06/29 02:43:42;;;;;;;4.57;1.40;;;;;;;23.08;42.24;101662.13;5030654;28;20037;-67
2022/06/29 02:46:08;;;;;;;3.72;1.48;;;;;;;23.19;42.30;101657.38;5030820;28;20033;-69
2022/06/29 02:48:33;;;;;;;2.30;1.70;;;;;;;23.12;42.23;101656.88;5030856;28;20017;-68
2022/06/29 02:51:01;;;;;;;3.00;1.60;;;;;;;23.07;42.17;101659.69;5031121;28;20025;-68
2022/06/29 02:53:27;;;;;;;4.38;1.67;;;;;;;23.03;42.20;101662.19;5030894;28;20074;-68
2022/06/29 02:55:52;;;;;;;3.80;1.48;;;;;;;23.07;42.88;101654.22;5030873;28;20030;-67
2022/06/29 02:58:18;;;;;;;5.10;2.00;;;;;;;23.07;42.37;101662.44;5030675;28;20033;-68
2022/06/29 03:00:43;;;;;;;4.57;1.63;;;;;;;23.01;42.80;101650.69;5030687;28;20095;-67
2022/06/29 03:03:09;;;;;;;4.47;2.00;;;;;;;22.97;42.67;101649.66;5030962;28;20025;-68
2022/06/29 03:05:34;;;;;;;4.25;2.00;;;;;;;22.72;42.91;101652.59;5030719;28;20306;-67
2022/06/29 03:07:59;;;;;;;6.10;1.80;;;;;;;22.52;43.79;101641.75;5030670;28;20039;-70
2022/06/29 03:10:25;;;;;;;5.13;1.63;;;;;;;22.72;43.07;101636.16;5030220;28;20144;-68
2022/06/29 03:12:50;;;;;;;2.70;1.48;;;;;;;22.38;44.35;101643.50;5030385;28;20029;-67
2022/06/29 03:15:16;;;;;;;1.83;1.58;;;;;;;22.16;45.18;101634.84;5031211;28;20041;-67
2022/06/29 03:17:41;;;;;;;2.65;1.70;;;;;;;21.98;45.61;101630.03;5029020;28;20049;-68
2022/06/29 03:20:07;;;;;;;2.42;1.65;;;;;;;22.04;45.12;101635.19;5030335;28;20030;-68
2022/06/29 03:22:33;;;;;;;3.08;1.60;;;;;;;21.98;45.85;101627.28;5030258;28;20521;-68
2022/06/29 03:24:59;;;;;;;3.78;2.45;;;;;;;21.96;45.86;101626.75;5030536;28;20091;-67
2022/06/29 03:27:25;;;;;;;2.85;1.42;;;;;;;21.91;45.42;101624.88;5029648;28;20037;-67
2022/06/29 03:29:50;;;;;;;7.45;1.95;;;;;;;21.93;45.77;101619.13;5030439;28;20034;-67
2022/06/29 03:32:16;;;;;;;2.22;1.40;;;;;;;21.92;45.89;101615.56;5030187;28;20041;-68
2022/06/29 03:34:41;;;;;;;5.03;1.60;;;;;;;21.92;45.70;101615.56;5028884;28;20040;-67
2022/06/29 03:37:06;;;;;;;4.35;1.60;;;;;;;21.92;45.70;101615.56;5030165;28;20433;-69
2022/06/29 03:39:32;;;;;;;4.70;1.55;;;;;;;21.87;45.93;101612.03;5030843;28;20037;-70
2022/06/29 03:41:57;;;;;;;2.35;1.98;;;;;;;21.81;46.25;101619.44;5030392;28;20072;-68
2022/06/29 03:44:23;;;;;;;2.17;1.45;;;;;;;21.68;47.15;101614.53;5030233;28;20409;-70
2022/06/29 03:46:48;;;;;;;4.10;1.75;;;;;;;21.83;46.11;101620.00;5030052;28;20045;-68
2022/06/29 03:49:13;;;;;;;3.55;2.28;;;;;;;21.82;46.52;101621.91;5030320;28;20436;-66
2022/06/29 03:51:39;;;;;;;3.38;1.77;;;;;;;21.87;45.78;101612.03;5030443;28;20112;-68
2022/06/29 03:54:04;;;;;;;8.55;2.25;;;;;;;21.93;46.38;101616.38;5034636;28;20025;-67
2022/06/29 03:56:29;;;;;;;3.33;2.40;;;;;;;22.10;45.78;101609.44;5033923;28;20041;-68
2022/06/29 03:58:55;;;;;;;2.08;1.52;;;;;;;22.20;45.40;101608.56;5033915;28;20064;-68
2022/06/29 04:01:21;;;;;;;2.70;2.00;;;;;;;22.19;45.19;101607.72;5031074;28;20045;-68
2022/06/29 04:03:46;;;;;;;3.22;2.13;;;;;;;22.20;45.27;101612.13;5033534;28;20436;-68
2022/06/29 04:06:13;;;;;;;5.65;2.80;;;;;;;22.21;45.86;101604.72;5033849;28;20041;-68
2022/06/29 04:08:39;;;;;;;3.50;2.13;;;;;;;22.22;45.84;101598.97;5031909;28;20048;-67
2022/06/29 04:11:48;;;;;;;2.72;2.30;;;;;;;22.24;45.38;101595.94;5019222;28;20042;-67
2022/06/29 04:13:51;;;;;;;2.47;1.80;;;;;;;22.30;45.90;101606.56;5033387;28;20338;-68
2022/06/29 04:16:17;;;;;;;13.27;2.15;;;;;;;22.21;45.93;101596.50;5033248;28;20045;-67
2022/06/29 04:18:42;;;;;;;2.20;2.00;;;;;;;;;;5033406;28;20037;-67
2022/06/29 04:21:08;;;;;;;3.47;1.85;;;;;;;22.24;46.27;101599.50;5022442;28;20123;-68
2022/06/29 04:23:33;;;;;;;9.02;2.20;;;;;;;22.09;46.70;101602.34;5013766;28;20084;-68
2022/06/29 04:25:58;;;;;;;3.50;1.92;;;;;;;22.34;45.57;101598.59;5013743;28;20042;-67
2022/06/29 04:28:24;;;;;;;3.20;2.35;;;;;;;22.34;45.93;101596.69;5013673;28;20037;-69
2022/06/29 04:30:49;;;;;;;4.20;2.42;;;;;;;22.33;45.86;101594.22;5013371;28;20038;-67
2022/06/29 04:33:15;;;;;;;4.55;2.17;;;;;;;22.33;45.55;101595.03;5023923;28;20390;-69
2022/06/29 04:35:40;;;;;;;7.55;2.00;;;;;;;22.34;45.97;101602.16;5013425;28;20041;-67
2022/06/29 04:38:06;;;;;;;5.65;2.83;;;;;;;22.45;46.12;101598.25;5033398;28;20036;-68
2022/06/29 04:40:31;;;;;;;3.83;2.38;;;;;;;22.47;46.08;101600.69;5033186;28;20041;-67
2022/06/29 04:42:57;;;;;;;3.17;2.15;;;;;;;22.31;46.13;101594.50;5033077;28;20127;-68
2022/06/29 04:48:06;;;;;;;2.08;1.95;;;;;;;22.46;45.98;101596.31;5033110;28;20045;-68
2022/06/29 04:50:32;;;;;;;2.10;1.90;;;;;;;22.56;45.55;101593.50;5047772;28;20029;-68
2022/06/29 04:52:57;;;;;;;4.93;2.40;;;;;;;22.65;45.78;101589.06;5032583;28;20041;-68
2022/06/29 04:55:25;;;;;;;2.65;2.42;;;;;;;22.74;45.28;101581.88;5033039;28;20444;-68
2022/06/29 04:57:51;;;;;;;5.50;2.50;;;;;;;22.84;44.68;101587.25;5032892;28;20104;-69
2022/06/29 05:00:17;;;;;;;3.97;2.42;;;;;;;22.94;43.88;101589.88;5033550;28;20120;-67
2022/06/29 05:02:42;;;;;;;6.65;2.70;;;;;;;23.12;43.44;101586.41;5032072;28;20041;-67
2022/06/29 05:05:08;;;;;;;3.50;2.58;;;;;;;23.18;43.10;101588.00;5032846;28;20277;-67
2022/06/29 05:07:33;;;;;;;5.45;2.53;;;;;;;23.47;42.67;101574.25;5032707;28;20037;-66
2022/06/29 05:09:59;;;;;;;4.95;2.55;;;;;;;23.32;42.88;101578.00;5032372;28;20099;-66
2022/06/29 05:12:24;;;;;;;5.63;2.65;;;;;;;23.52;42.51;101569.53;5033215;28;20033;-68
2022/06/29 05:14:50;;;;;;;5.85;2.53;;;;;;;23.40;42.98;101577.38;5029776;28;20429;-67
2022/06/29 05:17:15;;;;;;;4.13;2.60;;;;;;;23.34;42.93;101562.06;5029577;28;20030;-67
2022/06/29 05:19:40;;;;;;;3.30;2.25;;;;;;;23.47;42.66;101566.03;5029942;28;20034;-69
2022/06/29 05:22:06;;;;;;;3.47;2.88;;;;;;;23.60;42.42;101567.25;5030890;28;20394;-67
2022/06/29 05:24:31;;;;;;;6.15;2.60;;;;;;;23.59;42.56;101569.16;5031449;28;20280;-68
2022/06/29 05:26:57;;;;;;;4.38;2.85;;;;;;;23.61;41.79;101566.94;5030333;28;20037;-67
2022/06/29 05:29:24;;;;;;;5.22;2.65;;;;;;;23.65;42.04;101561.66;5030266;28;20038;-68
2022/06/29 05:31:49;;;;;;;3.22;2.40;;;;;;;23.78;42.25;101547.25;5030483;28;20037;-67
2022/06/29 05:34:14;;;;;;;3.80;2.15;;;;;;;23.67;42.32;101556.72;5030073;28;20049;-66
2022/06/29 05:36:40;;;;;;;3.05;2.70;;;;;;;23.64;41.87;101555.38;5030641;28;20447;-67
2022/06/29 05:39:05;;;;;;;6.72;3.60;;;;;;;23.48;42.66;101556.69;5030856;28;20033;-66
2022/06/29 05:41:31;;;;;;;3.05;2.30;;;;;;;23.85;42.05;101559.47;5030668;28;20025;-66
2022/06/29 05:43:56;;;;;;;7.05;3.05;;;;;;;24.04;41.62;101552.09;5031659;28;20045;-68
2022/06/29 05:46:22;;;;;;;3.20;2.50;;;;;;;23.84;41.81;101548.81;5031386;28;20056;-68
2022/06/29 05:48:47;;;;;;;6.45;2.95;;;;;;;24.13;41.52;101555.81;5031224;28;20048;-68
2022/06/29 05:51:13;;;;;;;4.13;2.50;;;;;;;24.35;41.29;101553.25;5031609;28;20065;-67
2022/06/29 05:53:38;;;;;;;2.40;2.17;;;;;;;24.40;41.47;101555.09;5031228;28;20045;-68
2022/06/29 05:56:04;;;;;;;7.10;3.22;;;;;;;24.28;41.22;101557.50;5031202;28;20037;-67
2022/06/29 05:58:29;;;;;;;5.53;2.90;;;;;;;24.15;41.39;101558.25;5031131;28;20488;-69
2022/06/29 06:00:55;;;;;;;6.07;2.97;;;;;;;24.70;40.31;101560.09;5031029;28;20037;-69
2022/06/29 06:03:20;;;;;;;5.20;2.65;;;;;;;24.68;40.87;101565.06;5031316;28;20033;-68
2022/06/29 06:05:46;;;;;;;4.45;2.70;;;;;;;24.74;40.67;101554.81;5030859;28;20394;-68
2022/06/29 06:08:13;;;;;;;2.90;2.20;;;;;;;24.99;40.23;101552.44;5030931;28;20509;-68
2022/06/29 06:10:39;;;;;;;7.50;2.45;;;;;;;24.88;40.80;101547.44;5029360;28;20046;-68
2022/06/29 06:13:05;;;;;;;4.65;2.67;;;;;;;24.80;40.63;101551.69;5030768;28;20042;-69
2022/06/29 06:15:32;;;;;;;3.85;2.55;;;;;;;24.76;40.63;101549.84;5029202;28;20033;-67
2022/06/29 06:17:58;;;;;;;4.38;2.40;;;;;;;24.92;40.03;101552.00;5029301;28;20505;-67
2022/06/29 06:20:23;;;;;;;7.07;2.38;;;;;;;25.03;39.96;101549.88;5021037;28;20036;-70
2022/06/29 06:22:48;;;;;;;4.13;2.53;;;;;;;25.12;40.28;101551.59;5023868;28;20048;-67
2022/06/29 06:25:14;;;;;;;5.72;3.08;;;;;;;24.84;40.90;101551.91;5030096;28;20030;-67
2022/06/29 06:27:39;;;;;;;4.70;2.80;;;;;;;25.21;40.43;101548.97;5030138;28;20033;-68
2022/06/29 06:30:05;;;;;;;3.78;2.55;;;;;;;25.31;40.27;101550.69;5030453;28;20381;-68
2022/06/29 06:32:30;;;;;;;4.70;2.65;;;;;;;25.44;40.00;101549.91;5029743;28;20033;-68
2022/06/29 06:34:56;;;;;;;4.05;2.92;;;;;;;24.83;40.77;101548.31;5030115;28;20044;-68
2022/06/29 06:37:21;;;;;;;3.40;2.72;;;;;;;24.71;40.95;101545.22;5024547;28;20030;-67
2022/06/29 06:42:31;;;;;;;2.90;2.38;;;;;;;25.22;40.21;101542.34;5026527;28;20477;-68
2022/06/29 06:44:56;;;;;;;3.08;2.20;;;;;;;25.25;40.09;101541.75;5026555;28;20037;-67
2022/06/29 06:47:21;;;;;;;6.75;2.97;;;;;;;25.36;39.71;101540.41;5026351;28;20052;-69
2022/06/29 06:49:47;;;;;;;3.83;2.08;;;;;;;25.39;39.76;101548.06;5026093;28;20472;-66
2022/06/29 06:52:13;;;;;;;4.10;2.70;;;;;;;25.45;39.91;101549.63;5026673;28;20045;-67
2022/06/29 06:54:39;;;;;;;7.72;2.50;;;;;;;25.49;39.33;101544.31;5026075;28;20138;-67
2022/06/29 06:57:04;;;;;;;6.68;2.60;;;;;;;25.51;39.63;101540.13;5026598;28;20034;-68
2022/06/29 06:59:30;;;;;;;4.00;2.70;;;;;;;25.65;39.28;101551.13;5026392;28;20030;-67
2022/06/29 07:01:55;;;;;;;7.13;2.47;;;;;;;25.59;38.99;101553.16;5025974;28;20041;-67
2022/06/29 07:04:20;;;;;;;5.90;2.47;;;;;;;25.59;39.30;101552.34;5024790;28;20029;-67
2022/06/29 07:06:46;;;;;;;5.18;2.60;;;;;;;25.65;39.17;101556.63;5025499;28;20072;-67
2022/06/29 07:09:12;;;;;;;5.97;2.40;;;;;;;25.85;39.08;101551.47;5022868;28;20029;-68
2022/06/29 07:11:37;;;;;;;7.18;2.65;;;;;;;25.93;39.02;101547.97;5026608;28;20033;-69
2022/06/29 07:14:03;;;;;;;5.93;2.22;;;;;;;25.99;38.80;101546.75;5029688;28;20092;-68
2022/06/29 07:16:29;;;;;;;4.30;2.30;;;;;;;25.89;38.75;101543.41;5029937;28;20116;-68
2022/06/29 07:18:55;;;;;;;4.43;2.00;;;;;;;25.95;38.33;101542.97;5028633;28;20041;-68
2022/06/29 07:21:21;;;;;;;8.40;2.47;;;;;;;25.98;38.57;101536.84;5029769;28;20025;-68
2022/06/29 07:23:47;;;;;;;2.30;2.05;;;;;;;25.95;38.60;101542.16;5029923;28;20246;-68
2022/06/29 07:26:12;;;;;;;2.85;2.05;;;;;;;25.82;39.14;101534.75;5029245;28;20037;-68
2022/06/29 07:28:39;;;;;;;5.60;1.98;;;;;;;26.09;39.16;101538.28;5031741;28;20038;-67
2022/06/29 07:31:05;;;;;;;4.25;2.03;;;;;;;25.97;39.09;101529.72;5031677;28;20111;-68
2022/06/29 07:33:31;;;;;;;3.78;1.52;;;;;;;26.11;38.93;101543.47;5032409;28;20037;-68
2022/06/29 07:35:56;;;;;;;3.65;2.40;;;;;;;26.05;38.75;101540.00;5030403;28;20505;-67
2022/06/29 07:38:22;;;;;;;3.08;1.80;;;;;;;26.38;37.81;101537.03;5032875;28;20037;-68
2022/06/29 07:40:47;;;;;;;3.72;2.15;;;;;;;26.62;37.62;101527.28;5031011;28;20029;-67
2022/06/29 07:43:12;;;;;;;4.43;1.90;;;;;;;26.63;38.04;101528.91;5029981;28;20381;-67
2022/06/29 07:45:38;;;;;;;4.55;1.85;;;;;;;26.81;37.33;101525.16;5023594;28;20579;-67
2022/06/29 07:48:04;;;;;;;6.88;2.00;;;;;;;26.86;37.21;101530.53;5030274;28;20033;-69
2022/06/29 07:50:29;;;;;;;4.90;1.88;;;;;;;26.84;36.50;101523.72;5030480;28;20777;-70
2022/06/29 07:52:55;;;;;;;5.90;1.80;;;;;;;26.96;36.50;101521.16;5029608;28;20402;-70
2022/06/29 07:55:20;;;;;;;2.67;1.60;;;;;;;27.06;36.40;101517.31;5027928;28;20034;-68
2022/06/29 07:57:46;;;;;;;2.67;1.60;;;;;;;27.28;36.26;101520.78;5029661;28;20057;-67
2022/06/29 08:00:12;;;;;;;4.60;2.00;;;;;;;27.13;36.51;101524.00;5027906;28;20017;-67
2022/06/29 08:02:37;;;;;;;4.95;2.10;;;;;;;27.19;36.05;101519.13;5029336;28;20025;-68
2022/06/29 08:05:03;;;;;;;2.22;1.80;;;;;;;27.57;35.51;101523.84;5028617;28;20045;-68
2022/06/29 08:07:28;;;;;;;4.05;2.15;;;;;;;27.56;35.41;101519.44;5028935;28;20045;-68
2022/06/29 08:09:54;;;;;;;4.25;1.88;;;;;;;27.66;35.31;101523.81;5022832;28;20053;-68
2022/06/29 08:12:20;;;;;;;5.00;1.83;;;;;;;27.70;35.52;101522.88;5028383;28;20558;-68
2022/06/29 08:14:45;;;;;;;4.47;1.80;;;;;;;27.88;36.01;101523.69;5028280;28;20569;-67
2022/06/29 08:17:11;;;;;;;3.63;2.13;;;;;;;28.16;34.70;101526.97;5029267;28;20041;-69
2022/06/29 08:19:36;;;;;;;5.88;2.10;;;;;;;28.19;34.76;101518.84;5028494;28;20033;-69
2022/06/29 08:22:03;;;;;;;6.60;1.98;;;;;;;28.21;34.79;101512.97;5027545;28;20048;-68
2022/06/29 08:24:29;;;;;;;3.75;2.10;;;;;;;28.19;34.55;101516.06;5028614;28;20504;-68
2022/06/29 08:26:54;;;;;;;3.05;2.30;;;;;;;28.35;34.63;101522.72;5028650;28;20049;-64
2022/06/29 08:29:20;;;;;;;4.25;1.98;;;;;;;28.21;34.63;101521.25;5029424;28;20509;-64
2022/06/29 08:31:46;;;;;;;5.10;2.00;;;;;;;28.34;35.24;101512.78;5028769;28;20037;-63
2022/06/29 08:34:13;;;;;;;6.18;2.95;;;;;;;28.84;34.77;101507.47;5028011;28;20068;-64
2022/06/29 08:36:39;;;;;;;5.22;2.03;;;;;;;28.75;34.57;101505.88;5028972;28;20561;-64
2022/06/29 08:39:04;;;;;;;3.72;1.90;;;;;;;28.82;33.70;101503.41;5028263;28;20053;-65
2022/06/29 08:41:31;;;;;;;4.88;1.98;;;;;;;28.66;34.62;101511.44;5028384;28;20033;-63
2022/06/29 08:43:59;;;;;;;3.33;1.90;;;;;;;29.14;33.48;101511.13;5027176;28;20063;-64
2022/06/29 08:46:24;;;;;;;6.90;1.60;;;;;;;29.20;32.71;101515.34;5026884;28;20046;-65
2022/06/29 08:48:50;;;;;;;1.20;0.88;;;;;;;29.12;31.94;101516.16;5027788;28;20398;-64
2022/06/29 08:51:19;;;;;;;4.80;1.02;;;;;;;29.10;31.53;101510.13;5029239;28;20112;-63
2022/06/29 08:53:45;;;;;;;3.80;1.35;;;;;;;29.21;32.02;101515.00;5028393;28;20049;-61
2022/06/29 08:56:12;;;;;;;4.30;1.20;;;;;;;29.26;31.77;101503.75;5027975;28;20155;-64
2022/06/29 08:58:40;;;;;;;1.73;1.30;;;;;;;29.56;30.32;101507.31;5028412;28;20037;-64
2022/06/29 09:01:05;;;;;;;3.58;1.40;;;;;;;29.62;31.55;101502.38;5027525;28;20033;-63
2022/06/29 09:03:31;;;;;;;2.70;1.25;;;;;;;29.85;30.37;101506.47;5028035;28;20032;-64
2022/06/29 09:05:56;;;;;;;2.67;1.08;;;;;;;29.79;30.26;101507.81;5029130;28;20413;-63
2022/06/29 09:08:23;;;;;;;3.67;1.50;;;;;;;29.83;30.57;101504.03;5028902;28;20123;-69
2022/06/29 09:10:49;;;;;;;2.90;1.27;;;;;;;30.16;30.21;101498.50;5027064;28;20534;-69
2022/06/29 09:13:20;;;;;;;18.85;2.03;;;;;;;30.30;29.81;101494.34;5029454;28;20038;-73
2022/06/29 09:15:46;;;;;;;3.47;1.55;;;;;;;30.72;30.23;101497.75;5009358;28;20037;-69
2022/06/29 09:18:28;;;;;;;1.77;1.33;;;;;;;31.16;29.25;101496.09;5017458;28;20573;-65
2022/06/29 09:21:04;;;;;;;4.15;1.67;;;;;;;31.13;28.11;101492.03;5029750;28;20030;-65
2022/06/29 09:23:31;;;;;;;4.10;1.13;;;;;;;31.41;29.34;101486.59;5022941;28;20531;-67
2022/06/29 09:25:57;;;;;;;4.57;1.23;;;;;;;31.52;28.34;101473.88;5025216;28;20042;-66
2022/06/29 09:28:29;;;;;;;1.85;1.30;;;;;;;31.43;29.13;101481.50;5028099;28;20038;-68
2022/06/29 09:30:56;;;;;;;2.05;1.10;;;;;;;31.42;28.54;101488.22;5028054;28;20047;-66
2022/06/29 09:33:24;;;;;;;9.07;1.13;;;;;;;31.45;27.51;101490.28;5028558;28;20079;-66
2022/06/29 09:36:16;;;;;;;5.43;1.50;;;;;;;31.75;27.56;101485.25;5028623;28;20488;-68
2022/06/29 09:38:42;;;;;;;2.08;1.15;;;;;;;31.80;27.74;101480.25;5026826;28;20038;-69
2022/06/29 09:41:13;;;;;;;2.03;1.02;;;;;;;31.57;25.88;101492.25;5028415;28;20033;-68
2022/06/29 09:43:43;;;;;;;8.50;1.30;;;;;;;31.76;26.48;101489.66;5028178;28;20036;-66
2022/06/29 09:46:11;;;;;;;2.40;1.20;;;;;;;31.94;26.55;101483.47;5028293;28;20160;-66
2022/06/29 09:48:38;;;;;;;1.45;0.90;;;;;;;31.84;26.01;101480.38;5027656;28;20037;-67
2022/06/29 09:53:52;;;;;;;2.00;1.15;;;;;;;31.91;25.60;101484.19;5027900;28;20052;-68
2022/06/29 09:56:20;;;;;;;5.15;1.45;;;;;;;31.72;25.66;101475.66;5028009;28;20038;-73
2022/06/29 09:58:48;;;;;;;0.88;0.65;;;;;;;32.08;25.58;101476.72;5028595;28;20037;-73
2022/06/29 10:03:59;;;;;;;2.38;0.98;;;;;;;32.25;26.40;101480.00;5027257;28;20156;-72
2022/06/29 10:06:25;;;;;;;4.47;0.77;;;;;;;32.79;24.68;101474.66;5024786;28;20040;-73
2022/06/29 10:08:56;;;;;;;1.73;0.85;;;;;;;32.90;24.98;101470.19;5027167;28;20041;-72
2022/06/29 10:14:36;;;;;;;1.90;0.98;;;;;;;33.05;24.47;101469.41;5025344;28;20449;-73
2022/06/29 10:17:34;;;;;;;1.45;0.90;;;;;;;33.29;24.34;101477.53;5026904;28;20108;-73
2022/06/29 10:20:09;;;;;;;2.25;1.00;;;;;;;33.33;24.97;101467.28;5025266;28;20053;-74
2022/06/29 10:22:34;;;;;;;2.13;1.23;;;;;;;33.43;24.30;101463.13;5026757;28;20041;-72
2022/06/29 10:25:04;;;;;;;1.38;0.80;;;;;;;33.39;24.64;101468.63;5027478;28;20048;-75
2022/06/29 10:27:30;;;;;;;2.45;0.95;;;;;;;33.28;25.41;101463.94;5026120;28;20292;-73
2022/06/29 10:30:18;;;;;;;2.75;1.17;;;;;;;33.75;24.86;101459.03;5023605;28;20043;-72
2022/06/29 10:32:44;;;;;;;3.70;0.80;;;;;;;33.87;24.35;101449.75;5024076;28;20033;-72
2022/06/29 10:35:10;;;;;;;6.90;1.05;;;;;;;33.53;24.64;101455.00;5041774;28;20049;-72
2022/06/29 10:37:53;;;;;;;2.08;0.88;;;;;;;33.56;24.81;101451.50;5024473;28;20045;-71
2022/06/29 10:40:24;;;;;;;2.08;0.70;;;;;;;34.28;22.60;101455.34;5024066;28;20188;-71
2022/06/29 10:43:10;;;;;;;1.70;0.80;;;;;;;34.32;22.29;101449.88;5025796;28;20033;-72
2022/06/29 10:45:41;;;;;;;3.13;0.57;;;;;;;34.30;22.24;101449.44;5023906;28;20030;-72
2022/06/29 10:48:12;;;;;;;4.50;1.10;;;;;;;34.56;22.03;101449.50;5026189;28;20027;-72
2022/06/29 10:50:38;;;;;;;2.72;0.47;;;;;;;35.07;21.35;101448.00;5026139;28;20064;-74
2022/06/29 10:53:05;;;;;;;4.55;0.52;;;;;;;34.72;19.85;101441.81;5026175;28;20115;-73
2022/06/29 10:55:33;;;;;;;2.03;0.73;;;;;;;34.46;20.66;101445.31;5026171;28;20038;-72
2022/06/29 10:57:58;;;;;;;1.88;0.47;;;;;;;34.83;20.67;101444.78;5025342;28;20470;-71
2022/06/29 11:00:29;;;;;;;1.00;0.50;;;;;;;34.98;19.84;101433.50;5026067;28;20053;-72
2022/06/29 11:02:55;;;;;;;1.38;0.47;;;;;;;34.74;20.07;101433.88;5024590;28;20025;-72
2022/06/29 11:05:20;;;;;;;0.60;0.30;;;;;;;34.84;19.74;101432.41;5026278;28;20045;-71
2022/06/29 11:13:23;;;;;;;3.85;0.75;;;;;;;34.85;19.51;101432.03;5023703;28;20073;-73
2022/06/29 11:15:53;;;;;;;0.85;0.60;;;;;;;35.62;19.44;101414.84;5022842;28;20029;-72
2022/06/29 11:18:26;;;;;;;1.35;0.60;;;;;;;35.45;18.92;101416.22;5025067;28;20087;-71
2022/06/29 11:20:52;;;;;;;1.85;0.60;;;;;;;34.59;18.79;101411.66;5025419;28;20037;-72
2022/06/29 11:23:20;;;;;;;1.55;0.70;;;;;;;35.54;19.67;101413.13;5025340;28;20428;-73
2022/06/29 11:25:48;;;;;;;1.27;0.50;;;;;;;34.48;18.85;101415.09;5023587;28;20026;-72
2022/06/29 11:28:17;;;;;;;4.40;0.70;;;;;;;34.55;18.82;101408.81;5025471;28;20048;-71
2022/06/29 11:30:57;;;;;;;1.60;0.63;;;;;;;35.72;19.38;101398.16;5024284;28;20033;-71
2022/06/29 11:33:27;;;;;;;1.25;0.73;;;;;;;35.90;19.08;101410.38;5024695;28;20458;-72
2022/06/29 11:35:52;;;;;;;2.55;0.73;;;;;;;35.64;19.55;101398.47;5024982;28;20037;-72
2022/06/29 11:38:17;;;;;;;1.85;0.77;;;;;;;35.81;19.92;101398.69;5025746;28;20041;-72
2022/06/29 11:40:43;;;;;;;1.92;0.63;;;;;;;35.51;18.22;101397.91;5024884;28;20096;-73
2022/06/29 11:43:11;;;;;;;2.17;0.85;;;;;;;34.85;19.56;101404.09;5024500;28;20390;-71
2022/06/29 11:45:45;;;;;;;1.02;0.50;;;;;;;34.82;20.34;101396.50;5025182;28;20026;-71
2022/06/29 11:48:14;;;;;;;2.75;0.80;;;;;;;35.07;20.58;101397.69;5023991;28;20083;-72